createdAt,value
2018-06-01T00:03:23.777Z,100937.33
2018-06-01T00:08:25.862Z,100935.27
2018-06-01T00:13:27.235Z,100937.16
2018-06-01T00:18:28.570Z,100930.27
2018-06-01T00:23:30.661Z,100931.52
2018-06-01T00:28:32.738Z,100938.31
2018-06-01T00:33:34.069Z,100925.95
2018-06-01T00:38:36.146Z,100917.83
2018-06-01T00:43:37.486Z,100913.98
2018-06-01T00:48:38.845Z,100922.13
2018-06-01T00:53:40.168Z,100918.12
2018-06-01T00:58:41.478Z,100936.23
2018-06-01T01:03:42.819Z,100930.27
2018-06-01T01:08:44.918Z,100934.55
2018-06-01T01:13:46.269Z,100927.19
2018-06-01T01:18:47.614Z,100933.54
2018-06-01T01:23:49.727Z,100952.92
2018-06-01T01:28:51.798Z,100954.34
2018-06-01T01:33:53.137Z,100954.33
2018-06-01T01:38:54.492Z,100955.21
2018-06-01T01:43:55.844Z,100974.78
2018-06-01T01:48:57.988Z,100967.29
2018-06-01T01:53:59.339Z,100965.95
2018-06-01T01:59:00.690Z,100970.17
2018-06-01T02:04:02.794Z,100977.20
2018-06-01T02:09:04.874Z,100971.77
2018-06-01T02:14:06.291Z,100974.13
2018-06-01T02:19:07.624Z,100973.13
2018-06-01T02:24:08.936Z,100972.40
2018-06-01T02:29:10.381Z,100972.22
2018-06-01T02:34:11.735Z,100972.27
2018-06-01T02:39:14.002Z,100975.55
2018-06-01T02:44:15.318Z,100961.17
2018-06-01T02:49:16.666Z,100957.86
2018-06-01T02:54:18.029Z,100966.69
2018-06-01T02:59:20.109Z,100956.66
2018-06-01T03:04:21.418Z,100976.30
2018-06-01T03:09:22.753Z,100970.73
2018-06-01T03:14:24.099Z,100979.23
2018-06-01T03:19:26.187Z,100981.22
2018-06-01T03:24:27.542Z,100992.59
2018-06-01T03:29:28.896Z,100995.56
2018-06-01T03:34:30.975Z,100987.06
2018-06-01T03:39:32.311Z,100974.28
2018-06-01T03:44:33.646Z,100969.20
2018-06-01T03:49:34.979Z,100972.92
2018-06-01T03:54:37.061Z,100977.44
2018-06-01T03:59:38.362Z,100982.17
2018-06-01T04:04:40.430Z,100981.06
2018-06-01T04:09:41.775Z,100980.94
2018-06-01T04:14:43.893Z,100970.69
2018-06-01T04:19:45.218Z,100969.45
2018-06-01T04:24:47.389Z,100971.66
2018-06-01T04:29:49.799Z,100968.72
2018-06-01T04:34:51.174Z,100972.22
2018-06-01T04:39:53.242Z,100978.52
2018-06-01T04:44:54.566Z,100969.78
2018-06-01T04:49:56.654Z,100981.53
2018-06-01T04:54:58.003Z,100976.99
2018-06-01T04:59:59.414Z,100985.59
2018-06-01T05:05:00.750Z,100996.60
2018-06-01T05:10:02.842Z,100984.38
2018-06-01T05:15:04.333Z,100983.71
2018-06-01T05:20:05.698Z,100977.64
2018-06-01T05:25:07.010Z,100968.65
2018-06-01T05:30:08.311Z,100955.37
2018-06-01T05:35:09.670Z,100954.38
2018-06-01T05:40:10.979Z,100967.48
2018-06-01T05:45:12.302Z,100955.56
2018-06-01T05:50:13.618Z,100967.98
2018-06-01T05:55:14.926Z,100975.51
2018-06-01T06:00:16.233Z,100975.58
2018-06-01T06:05:17.569Z,100984.53
2018-06-01T06:10:18.898Z,100989.23
2018-06-01T06:15:20.228Z,100987.31
2018-06-01T06:20:22.270Z,100994.84
2018-06-01T06:25:23.599Z,100989.53
2018-06-01T06:30:24.910Z,100990.99
2018-06-01T06:35:26.970Z,100998.31
2018-06-01T06:40:28.312Z,100988.27
2018-06-01T06:45:30.370Z,100979.73
2018-06-01T06:50:31.730Z,100980.27
2018-06-01T06:55:33.053Z,100979.41
2018-06-01T07:00:34.367Z,100982.86
2018-06-01T07:05:36.427Z,100983.55
2018-06-01T07:10:37.783Z,100987.42
2018-06-01T07:15:39.133Z,100979.52
2018-06-01T07:20:40.469Z,100982.41
2018-06-01T07:25:41.798Z,100986.25
2018-06-01T07:30:43.118Z,100976.91
2018-06-01T07:35:44.438Z,100985.80
2018-06-01T07:40:45.782Z,100989.23
2018-06-01T07:45:47.107Z,101003.27
2018-06-01T07:50:48.426Z,101007.23
2018-06-01T07:55:49.757Z,101000.16
2018-06-01T08:00:51.080Z,101005.22
2018-06-01T08:05:52.460Z,101014.89
2018-06-01T08:10:54.539Z,101016.88
2018-06-01T08:15:55.847Z,101010.09
2018-06-01T08:20:57.902Z,101020.16
2018-06-01T08:25:59.253Z,101023.59
2018-06-01T08:31:01.318Z,101025.02
2018-06-01T08:36:02.652Z,101040.70
2018-06-01T08:41:04.753Z,101040.80
2018-06-01T08:46:06.812Z,101035.73
2018-06-01T08:51:08.130Z,101031.67
2018-06-01T08:56:09.475Z,101031.02
2018-06-01T09:01:10.794Z,101034.67
2018-06-01T09:06:12.146Z,101031.45
2018-06-01T09:11:13.498Z,101027.55
2018-06-01T09:16:14.810Z,101026.27
2018-06-01T09:21:16.186Z,101028.72
2018-06-01T09:26:18.234Z,101032.12
2018-06-01T09:31:19.543Z,101026.63
2018-06-01T09:36:20.866Z,101026.63
2018-06-01T09:41:22.918Z,101033.51
2018-06-01T09:46:24.289Z,101030.70
2018-06-01T09:51:25.778Z,101031.68
2018-06-01T09:56:27.085Z,101033.77
2018-06-01T10:01:28.459Z,101032.31
2018-06-01T10:06:30.636Z,101037.42
2018-06-01T10:11:32.008Z,101039.02
2018-06-01T10:16:33.347Z,101030.84
2018-06-01T10:21:34.677Z,101029.42
2018-06-01T10:26:36.024Z,101023.36
2018-06-01T10:31:37.346Z,101019.50
2018-06-01T10:36:38.689Z,101031.56
2018-06-01T10:41:40.772Z,101043.73
2018-06-01T10:46:42.112Z,101035.98
2018-06-01T10:51:43.434Z,101031.36
2018-06-01T10:56:44.756Z,101028.94
2018-06-01T11:01:46.834Z,101046.55
2018-06-01T11:06:48.190Z,101049.49
2018-06-01T11:11:49.576Z,101077.70
2018-06-01T11:16:50.902Z,101095.84
2018-06-01T11:21:53.033Z,101093.06
2018-06-01T11:26:55.111Z,101107.08
2018-06-01T11:31:56.463Z,101121.53
2018-06-01T11:36:57.898Z,101136.38
2018-06-01T11:41:59.736Z,101140.69
2018-06-01T11:47:01.810Z,101132.06
2018-06-01T11:52:03.169Z,101117.38
2018-06-01T11:57:04.521Z,101114.26
2018-06-01T12:02:06.611Z,101122.83
2018-06-01T12:07:08.018Z,101125.94
2018-06-01T12:12:10.121Z,101122.07
2018-06-01T12:17:12.202Z,101109.77
2018-06-01T12:22:13.529Z,101102.85
2018-06-01T12:27:15.579Z,101101.91
2018-06-01T12:32:16.921Z,101093.20
2018-06-01T12:37:18.982Z,101075.03
2018-06-01T12:42:20.311Z,101060.87
2018-06-01T12:47:21.629Z,101041.17
2018-06-01T12:52:22.998Z,101028.53
2018-06-01T12:57:25.047Z,101015.77
2018-06-01T13:02:26.410Z,101012.99
2018-06-01T13:07:27.802Z,101002.52
2018-06-01T13:12:29.262Z,100988.41
2018-06-01T13:17:30.658Z,100972.67
2018-06-01T13:22:32.027Z,100960.53
2018-06-01T13:27:33.355Z,100954.77
2018-06-01T13:32:35.414Z,100961.59
2018-06-01T13:37:36.758Z,100975.33
2018-06-01T13:42:38.093Z,100982.59
2018-06-01T13:47:39.434Z,100982.69
2018-06-01T13:52:40.782Z,100990.00
2018-06-01T13:57:42.103Z,101001.45
2018-06-01T14:02:44.178Z,100999.64
2018-06-01T14:07:45.526Z,101009.19
2018-06-01T14:12:46.899Z,101012.03
2018-06-01T14:17:48.951Z,101004.62
2018-06-01T14:22:50.294Z,101007.30
2018-06-01T14:27:52.412Z,101001.27
2018-06-01T14:32:53.729Z,101003.25
2018-06-01T14:37:55.058Z,101008.62
2018-06-01T14:42:56.376Z,101001.55
2018-06-01T14:47:57.706Z,101010.20
2018-06-01T14:52:59.043Z,101008.73
2018-06-01T14:58:01.139Z,101005.33
2018-06-01T15:03:02.479Z,101004.37
2018-06-01T15:08:03.835Z,101009.00
2018-06-01T15:13:05.923Z,101009.81
2018-06-01T15:18:07.275Z,101004.03
2018-06-01T15:23:08.639Z,100994.66
2018-06-01T15:28:09.968Z,100988.63
2018-06-01T15:33:11.302Z,100983.13
2018-06-01T15:38:13.392Z,100978.92
2018-06-01T15:43:15.550Z,100979.81
2018-06-01T15:48:16.910Z,100980.94
2018-06-01T15:53:18.242Z,100993.63
2018-06-01T15:58:19.596Z,100999.78
2018-06-01T16:03:20.943Z,101006.52
2018-06-01T16:08:23.468Z,101001.64
2018-06-01T16:13:24.947Z,101000.81
2018-06-01T16:18:26.284Z,100996.39
2018-06-01T16:23:27.663Z,101002.63
2018-06-01T16:28:29.747Z,101002.48
2018-06-01T16:33:31.263Z,101007.67
2018-06-01T16:38:33.382Z,101004.08
2018-06-01T16:43:34.723Z,101003.09
2018-06-01T16:48:36.051Z,101013.66
2018-06-01T16:53:38.112Z,101007.59
2018-06-01T16:58:39.444Z,101002.33
2018-06-01T17:03:41.531Z,101002.00
2018-06-01T17:08:42.858Z,101003.35
2018-06-01T17:13:44.213Z,101001.98
2018-06-01T17:18:45.599Z,100994.33
2018-06-01T17:23:46.922Z,100997.95
2018-06-01T17:28:48.252Z,101005.99
2018-06-01T17:33:49.603Z,100991.25
2018-06-01T17:38:50.938Z,100994.97
2018-06-01T17:43:52.323Z,100992.59
2018-06-01T17:48:53.711Z,100994.56
2018-06-01T17:53:55.103Z,100984.33
2018-06-01T17:58:56.438Z,100980.17
2018-06-01T18:03:58.555Z,100980.99
2018-06-01T18:08:59.940Z,100992.68
2018-06-01T18:14:02.173Z,100975.34
2018-06-01T18:19:03.577Z,100991.54
2018-06-01T18:24:04.971Z,100987.75
2018-06-01T18:29:06.566Z,100993.48
2018-06-01T18:34:08.113Z,100987.90
2018-06-01T18:39:10.235Z,100988.27
2018-06-01T18:44:12.369Z,100985.46
2018-06-01T18:49:13.829Z,100984.48
2018-06-01T18:54:15.222Z,100991.17
2018-06-01T18:59:17.416Z,100990.98
2018-06-01T19:04:19.479Z,101003.00
2018-06-01T19:09:20.823Z,101002.04
2018-06-01T19:14:22.980Z,101004.66
2018-06-01T19:19:24.356Z,101016.13
2018-06-01T19:24:25.701Z,101019.86
2018-06-01T19:29:27.096Z,101017.20
2018-06-01T19:34:29.262Z,101020.59
2018-06-01T19:39:31.642Z,101021.51
2018-06-01T19:44:32.978Z,101026.59
2018-06-01T19:49:34.342Z,101029.42
2018-06-01T19:54:35.723Z,101035.34
2018-06-01T19:59:38.177Z,101032.08
2018-06-01T20:04:40.419Z,101026.14
2018-06-01T20:09:42.482Z,101015.13
2018-06-01T20:14:45.612Z,101027.53
2018-06-01T20:19:48.759Z,101038.83
2018-06-01T20:24:51.093Z,101033.33
2018-06-01T20:29:53.380Z,101043.94
2018-06-01T20:34:55.416Z,101048.64
2018-06-01T20:39:57.392Z,101045.67
2018-06-01T20:44:58.847Z,101048.73
2018-06-01T20:50:00.183Z,101063.13
2018-06-01T20:55:01.515Z,101071.04
2018-06-01T21:00:02.950Z,101062.47
2018-06-01T21:05:04.332Z,101059.36
2018-06-01T21:10:05.678Z,101064.77
2018-06-01T21:15:07.782Z,101072.27
2018-06-01T21:20:09.862Z,101068.66
2018-06-01T21:25:11.423Z,101062.08
2018-06-01T21:30:12.795Z,101060.54
2018-06-01T21:35:14.167Z,101063.38
2018-06-01T21:40:16.463Z,101057.09
2018-06-01T21:45:17.879Z,101058.86
2018-06-01T21:50:19.210Z,101069.34
2018-06-01T21:55:20.539Z,101074.17
2018-06-01T22:00:22.647Z,101074.23
2018-06-01T22:05:24.770Z,101072.36
2018-06-01T22:10:27.026Z,101083.75
2018-06-01T22:15:28.381Z,101078.02
2018-06-01T22:20:29.780Z,101077.95
2018-06-01T22:25:31.161Z,101063.38
2018-06-01T22:30:32.511Z,101056.20
2018-06-01T22:35:33.842Z,101056.41
2018-06-01T22:40:35.159Z,101071.57
2018-06-01T22:45:36.618Z,101077.08
2018-06-01T22:50:37.958Z,101070.11
2018-06-01T22:55:39.432Z,101077.91
2018-06-01T23:00:40.790Z,101080.73
2018-06-01T23:05:42.102Z,101077.59
2018-06-01T23:10:44.152Z,101069.57
2018-06-01T23:15:45.495Z,101087.86
2018-06-01T23:20:46.946Z,101082.62
2018-06-01T23:25:48.407Z,101083.70
2018-06-01T23:30:49.759Z,101083.91
2018-06-01T23:35:51.086Z,101068.21
2018-06-01T23:40:52.436Z,101059.39
2018-06-01T23:45:53.796Z,101064.02
2018-06-01T23:50:55.140Z,101064.73
2018-06-01T23:55:56.458Z,101060.62
